createdAt,value
2019-02-27T00:00:52.874Z,3.00
2019-02-27T00:02:56.137Z,2.20
2019-02-27T00:04:58.750Z,2.10
2019-02-27T00:07:02.422Z,3.05
2019-02-27T00:09:05.397Z,2.00
2019-02-27T00:11:09.953Z,2.45
2019-02-27T00:13:12.107Z,2.30
2019-02-27T00:15:15.022Z,2.80
2019-02-27T00:17:18.811Z,2.30
2019-02-27T00:19:21.088Z,2.40
2019-02-27T00:21:24.755Z,2.30
2019-02-27T00:23:27.877Z,2.80
2019-02-27T00:25:30.794Z,2.50
2019-02-27T00:27:33.701Z,2.72
2019-02-27T00:29:37.183Z,2.50
2019-02-27T00:31:40.111Z,3.57
2019-02-27T00:33:43.781Z,2.93
2019-02-27T00:35:46.893Z,3.00
2019-02-27T00:37:52.127Z,4.40
2019-02-27T00:39:53.522Z,3.60
2019-02-27T00:41:56.570Z,3.12
2019-02-27T00:44:01.490Z,3.47
2019-02-27T00:46:02.522Z,3.13
2019-02-27T00:48:06.246Z,3.03
2019-02-27T00:50:09.187Z,3.62
2019-02-27T00:52:12.188Z,3.72
2019-02-27T00:54:15.909Z,4.22
2019-02-27T00:56:18.850Z,4.53
2019-02-27T00:58:21.766Z,5.22
2019-02-27T01:00:24.731Z,7.20
2019-02-27T01:02:28.410Z,5.93
2019-02-27T01:04:34.983Z,7.43
2019-02-27T01:06:35.238Z,7.27
2019-02-27T01:08:38.290Z,7.50
2019-02-27T01:10:42.884Z,6.10
2019-02-27T01:12:46.134Z,6.93
2019-02-27T01:14:49.059Z,7.37
2019-02-27T01:16:51.978Z,6.67
2019-02-27T01:18:56.126Z,7.93
2019-02-27T01:20:59.035Z,6.83
2019-02-27T01:23:01.954Z,5.93
2019-02-27T01:25:05.148Z,6.07
2019-02-27T01:27:08.820Z,7.12
2019-02-27T01:29:11.745Z,4.40
2019-02-27T01:31:14.695Z,4.87
2019-02-27T01:33:18.370Z,4.55
2019-02-27T01:35:21.386Z,4.40
2019-02-27T01:37:25.113Z,4.30
2019-02-27T01:39:28.022Z,4.30
2019-02-27T01:41:30.939Z,4.62
2019-02-27T01:43:36.889Z,4.53
2019-02-27T01:45:37.706Z,4.20
2019-02-27T01:47:42.123Z,3.90
2019-02-27T01:49:48.888Z,4.00
2019-02-27T01:51:48.087Z,4.40
2019-02-27T01:53:51.100Z,4.62
2019-02-27T01:55:56.368Z,4.78
2019-02-27T01:57:58.588Z,4.30
2019-02-27T02:00:02.279Z,4.27
2019-02-27T02:02:05.230Z,4.55
2019-02-27T02:04:08.166Z,4.63
2019-02-27T02:06:11.242Z,4.32
2019-02-27T02:08:15.006Z,5.30
2019-02-27T02:10:17.959Z,4.03
2019-02-27T02:12:20.869Z,4.50
2019-02-27T02:14:46.482Z,4.28
2019-02-27T02:16:55.285Z,4.45
2019-02-27T02:19:18.993Z,4.07
2019-02-27T02:21:27.399Z,4.14
2019-02-27T02:23:44.983Z,4.78
2019-02-27T02:25:49.579Z,4.15
2019-02-27T02:28:07.172Z,4.43
2019-02-27T02:30:15.784Z,4.62
2019-02-27T02:32:23.291Z,3.70
2019-02-27T02:34:31.684Z,3.90
2019-02-27T02:36:41.410Z,4.67
2019-02-27T02:38:48.810Z,4.63
2019-02-27T02:41:10.313Z,4.27
2019-02-27T02:43:25.103Z,4.20
2019-02-27T02:45:33.051Z,4.20
2019-02-27T02:47:35.143Z,4.47
2019-02-27T02:49:53.944Z,4.12
2019-02-27T02:52:13.546Z,3.47
2019-02-27T02:54:37.903Z,3.60
2019-02-27T02:56:48.529Z,3.00
2019-02-27T02:59:14.235Z,3.47
2019-02-27T03:01:18.667Z,4.37
2019-02-27T03:03:35.980Z,3.50
2019-02-27T03:05:39.826Z,3.77
2019-02-27T03:07:52.513Z,4.93
2019-02-27T03:10:07.358Z,4.00
2019-02-27T03:12:18.349Z,4.05
2019-02-27T03:14:29.971Z,3.10
2019-02-27T03:16:50.734Z,3.33
2019-02-27T03:19:12.112Z,3.70
2019-02-27T03:21:20.227Z,4.10
2019-02-27T03:23:25.186Z,4.50
2019-02-27T03:25:47.210Z,4.43
2019-02-27T03:27:54.732Z,3.45
2019-02-27T03:30:07.388Z,3.85
2019-02-27T03:32:13.750Z,3.67
2019-02-27T03:34:50.934Z,4.22
2019-02-27T03:37:05.264Z,3.80
2019-02-27T03:39:08.977Z,3.08
2019-02-27T03:41:22.539Z,3.00
2019-02-27T03:43:37.354Z,4.22
2019-02-27T03:45:46.084Z,2.85
2019-02-27T03:47:52.172Z,3.78
2019-02-27T03:50:15.052Z,3.20
2019-02-27T03:52:21.997Z,3.20
2019-02-27T03:54:32.593Z,3.10
2019-02-27T03:56:58.041Z,2.83
2019-02-27T03:59:05.569Z,3.10
2019-02-27T04:01:30.075Z,3.00
2019-02-27T04:03:44.133Z,3.90
2019-02-27T04:06:11.745Z,3.03
2019-02-27T04:08:25.994Z,3.15
2019-02-27T04:10:31.305Z,3.62
2019-02-27T04:12:32.651Z,3.15
2019-02-27T04:14:40.208Z,3.45
2019-02-27T04:16:38.409Z,3.83
2019-02-27T04:18:41.392Z,3.70
2019-02-27T04:20:49.678Z,3.70
2019-02-27T04:22:47.160Z,3.47
2019-02-27T04:24:56.416Z,3.67
2019-02-27T04:26:54.508Z,3.47
2019-02-27T04:29:01.432Z,3.80
2019-02-27T04:31:01.237Z,3.20
2019-02-27T04:33:04.146Z,3.78
2019-02-27T04:35:07.770Z,3.95
2019-02-27T04:37:10.651Z,3.17
2019-02-27T04:39:13.590Z,3.55
2019-02-27T04:41:18.144Z,3.20
2019-02-27T04:43:20.188Z,3.83
2019-02-27T04:45:23.855Z,3.53
2019-02-27T04:47:29.251Z,3.47
2019-02-27T04:49:29.752Z,3.65
2019-02-27T04:51:33.403Z,3.80
2019-02-27T04:53:36.284Z,3.60
2019-02-27T04:55:39.191Z,3.72
2019-02-27T04:57:42.039Z,3.90
2019-02-27T04:59:44.914Z,4.20
2019-02-27T05:01:48.119Z,3.30
2019-02-27T05:03:51.020Z,3.10
2019-02-27T05:05:53.887Z,3.55
2019-02-27T05:07:56.772Z,3.93
2019-02-27T05:09:59.639Z,3.40
2019-02-27T05:12:02.519Z,5.13
2019-02-27T05:14:06.236Z,4.60
2019-02-27T05:16:09.124Z,4.53
2019-02-27T05:18:13.495Z,4.32
2019-02-27T05:20:16.693Z,4.30
2019-02-27T05:22:19.579Z,4.25
2019-02-27T05:24:22.455Z,4.20
2019-02-27T05:26:27.251Z,4.22
2019-02-27T05:28:28.443Z,4.32
2019-02-27T05:30:31.319Z,4.12
2019-02-27T05:32:34.222Z,3.40
2019-02-27T05:34:38.491Z,4.07
2019-02-27T05:36:41.406Z,3.85
2019-02-27T05:38:44.388Z,4.45
2019-02-27T05:40:47.252Z,3.67
2019-02-27T05:42:50.243Z,4.30
2019-02-27T05:44:55.872Z,3.37
2019-02-27T05:46:56.115Z,4.22
2019-02-27T05:48:59.239Z,3.25
2019-02-27T05:51:04.923Z,3.80
2019-02-27T05:53:06.459Z,3.50
2019-02-27T05:55:09.891Z,3.40
2019-02-27T05:57:13.687Z,3.83
2019-02-27T05:59:16.559Z,3.13
2019-02-27T06:01:19.491Z,3.65
2019-02-27T06:03:22.461Z,3.85
2019-02-27T06:05:26.187Z,2.60
2019-02-27T06:07:29.579Z,3.25
2019-02-27T06:09:33.201Z,2.95
2019-02-27T06:11:36.212Z,3.47
2019-02-27T06:13:39.100Z,3.00
2019-02-27T06:15:41.955Z,2.97
2019-02-27T06:17:48.826Z,3.78
2019-02-27T06:19:47.842Z,3.65
2019-02-27T06:21:50.727Z,4.12
2019-02-27T06:23:54.393Z,3.70
2019-02-27T06:25:59.378Z,3.70
2019-02-27T06:28:01.140Z,4.55
2019-02-27T06:30:04.095Z,4.82
2019-02-27T06:32:11.920Z,3.62
2019-02-27T06:34:11.730Z,3.50
2019-02-27T06:36:14.779Z,3.33
2019-02-27T06:38:17.667Z,3.22
2019-02-27T06:40:20.636Z,3.70
2019-02-27T06:42:23.575Z,3.43
2019-02-27T06:44:27.190Z,4.35
2019-02-27T06:46:30.835Z,8.52
2019-02-27T06:48:34.484Z,11.40
2019-02-27T06:50:37.362Z,9.60
2019-02-27T06:52:42.505Z,10.32
2019-02-27T06:54:44.783Z,8.88
2019-02-27T06:56:47.681Z,9.20
2019-02-27T06:58:50.736Z,8.55
2019-02-27T07:00:54.703Z,8.05
2019-02-27T07:02:57.875Z,7.75
2019-02-27T07:05:01.559Z,7.10
2019-02-27T07:07:05.079Z,5.55
2019-02-27T07:09:11.313Z,5.17
2019-02-27T07:11:11.744Z,7.72
2019-02-27T07:13:15.840Z,6.45
2019-02-27T07:15:18.958Z,7.03
2019-02-27T07:17:22.623Z,6.17
2019-02-27T07:19:25.619Z,5.75
2019-02-27T07:21:32.574Z,7.23
2019-02-27T07:23:32.187Z,6.25
2019-02-27T07:25:35.098Z,5.72
2019-02-27T07:27:38.759Z,5.30
2019-02-27T07:29:42.912Z,6.45
2019-02-27T07:31:45.333Z,5.53
2019-02-27T07:33:48.872Z,5.05
2019-02-27T07:35:52.520Z,5.00
2019-02-27T07:37:55.419Z,5.35
2019-02-27T07:39:58.775Z,6.37
2019-02-27T07:42:02.447Z,5.97
2019-02-27T07:44:06.103Z,5.72
2019-02-27T07:46:09.017Z,5.85
2019-02-27T07:48:12.684Z,4.85
2019-02-27T07:50:16.223Z,4.85
2019-02-27T07:52:21.074Z,5.30
2019-02-27T07:54:23.973Z,5.70
2019-02-27T07:56:27.834Z,6.60
2019-02-27T07:58:33.666Z,5.30
2019-02-27T08:00:35.061Z,6.62
2019-02-27T08:02:37.979Z,5.45
2019-02-27T08:04:40.868Z,5.80
2019-02-27T08:06:43.755Z,5.30
2019-02-27T08:08:46.768Z,6.18
2019-02-27T08:10:50.255Z,6.28
2019-02-27T08:12:56.536Z,5.37
2019-02-27T08:14:56.833Z,5.80
2019-02-27T08:17:00.516Z,6.37
2019-02-27T08:19:03.824Z,6.20
2019-02-27T08:21:07.495Z,4.70
2019-02-27T08:23:10.372Z,6.22
2019-02-27T08:25:15.722Z,6.40
2019-02-27T08:27:19.409Z,5.72
2019-02-27T08:29:22.303Z,5.65
2019-02-27T08:31:28.157Z,4.70
2019-02-27T08:33:28.843Z,6.40
2019-02-27T08:35:32.696Z,6.25
2019-02-27T08:37:36.958Z,6.07
2019-02-27T08:39:39.835Z,4.85
2019-02-27T08:41:42.744Z,4.93
2019-02-27T08:43:45.631Z,5.35
2019-02-27T08:45:48.852Z,5.45
2019-02-27T08:47:52.523Z,6.43
2019-02-27T08:49:58.010Z,6.68
2019-02-27T08:51:59.212Z,5.97
2019-02-27T08:54:02.079Z,4.82
2019-02-27T08:56:06.439Z,6.05
2019-02-27T08:58:09.356Z,5.80
2019-02-27T09:00:24.473Z,5.62
2019-02-27T09:02:29.477Z,5.95
2019-02-27T09:04:31.049Z,6.22
2019-02-27T09:06:34.016Z,5.68
2019-02-27T09:08:36.932Z,5.43
2019-02-27T09:10:39.804Z,5.70
2019-02-27T09:12:45.447Z,6.10
2019-02-27T09:14:45.884Z,5.95
2019-02-27T09:16:49.030Z,5.45
2019-02-27T09:18:51.921Z,6.20
2019-02-27T09:20:55.604Z,6.03
2019-02-27T09:22:58.494Z,6.05
2019-02-27T09:25:02.168Z,5.72
2019-02-27T09:27:05.169Z,6.25
2019-02-27T09:29:08.552Z,6.22
2019-02-27T09:31:12.265Z,6.62
2019-02-27T09:33:17.017Z,5.70
2019-02-27T09:35:18.720Z,5.43
2019-02-27T09:37:21.630Z,6.60
2019-02-27T09:39:25.284Z,5.10
2019-02-27T09:41:28.176Z,6.35
2019-02-27T09:43:32.283Z,6.37
2019-02-27T09:45:35.437Z,6.70
2019-02-27T09:47:37.831Z,5.80
2019-02-27T09:49:41.531Z,6.43
2019-02-27T09:51:44.582Z,5.30
2019-02-27T09:53:47.507Z,5.70
2019-02-27T09:55:53.492Z,6.57
2019-02-27T09:57:54.211Z,7.07
2019-02-27T09:59:57.117Z,6.95
2019-02-27T10:02:00.903Z,6.10
2019-02-27T10:04:04.127Z,6.83
2019-02-27T10:06:08.756Z,6.93
2019-02-27T10:08:09.945Z,6.50
2019-02-27T10:10:12.975Z,6.50
2019-02-27T10:12:17.311Z,6.83
2019-02-27T10:14:20.356Z,7.50
2019-02-27T10:16:23.245Z,7.00
2019-02-27T10:18:26.899Z,6.70
2019-02-27T10:20:30.116Z,7.00
2019-02-27T10:22:34.642Z,7.00
2019-02-27T10:24:38.295Z,7.03
2019-02-27T10:26:41.716Z,7.30
2019-02-27T10:28:44.612Z,7.50
2019-02-27T10:30:49.934Z,8.13
2019-02-27T10:32:51.167Z,7.07
2019-02-27T10:34:54.502Z,7.10
2019-02-27T10:36:57.886Z,7.57
2019-02-27T10:39:02.145Z,7.60
2019-02-27T10:41:04.551Z,7.77
2019-02-27T10:43:07.556Z,6.73
2019-02-27T10:45:11.661Z,8.23
2019-02-27T10:47:16.208Z,8.23
2019-02-27T10:49:21.524Z,7.43
2019-02-27T10:51:22.567Z,7.30
2019-02-27T10:53:27.359Z,8.40
2019-02-27T10:55:28.342Z,8.23
2019-02-27T10:57:32.509Z,7.10
2019-02-27T10:59:34.171Z,7.83
2019-02-27T11:01:37.848Z,8.10
2019-02-27T11:03:40.952Z,7.30
2019-02-27T11:05:43.868Z,8.47
2019-02-27T11:07:46.772Z,8.03
2019-02-27T11:09:49.920Z,7.53
2019-02-27T11:11:53.948Z,8.43
2019-02-27T11:13:56.443Z,7.90
2019-02-27T11:15:59.449Z,6.93
2019-02-27T11:18:05.562Z,7.83
2019-02-27T11:20:05.443Z,7.73
2019-02-27T11:22:09.119Z,7.97
2019-02-27T11:24:14.523Z,8.50
2019-02-27T11:26:15.887Z,7.60
2019-02-27T11:28:19.005Z,8.30
2019-02-27T11:30:24.219Z,8.43
2019-02-27T11:32:27.112Z,6.67
2019-02-27T11:34:30.917Z,7.37
2019-02-27T11:36:35.056Z,8.63
2019-02-27T11:38:37.803Z,9.07
2019-02-27T11:40:42.670Z,9.83
2019-02-27T11:42:44.359Z,8.87
2019-02-27T11:44:49.441Z,8.40
2019-02-27T11:46:58.399Z,9.03
2019-02-27T11:48:53.067Z,8.10
2019-02-27T11:50:56.033Z,8.73
2019-02-27T11:53:02.763Z,8.87
2019-02-27T11:55:03.480Z,7.73
2019-02-27T11:57:07.319Z,7.60
2019-02-27T11:59:12.959Z,8.07
2019-02-27T12:01:13.923Z,8.23
2019-02-27T12:03:16.831Z,8.27
2019-02-27T12:05:20.191Z,8.33
2019-02-27T12:07:23.875Z,9.30
2019-02-27T12:09:27.668Z,8.43
2019-02-27T12:11:31.363Z,8.63
2019-02-27T12:13:34.860Z,8.97
2019-02-27T12:15:37.232Z,8.57
2019-02-27T12:17:40.923Z,8.53
2019-02-27T12:19:45.191Z,8.70
2019-02-27T12:21:46.698Z,9.50
2019-02-27T12:23:51.251Z,9.17
2019-02-27T12:25:54.147Z,8.90
2019-02-27T12:27:57.041Z,8.63
2019-02-27T12:30:02.481Z,10.00
2019-02-27T12:32:02.951Z,9.00
2019-02-27T12:34:06.666Z,10.07
2019-02-27T12:36:10.353Z,9.97
2019-02-27T12:38:13.284Z,11.10
2019-02-27T12:40:16.968Z,8.73
2019-02-27T12:42:19.896Z,8.87
2019-02-27T12:44:22.879Z,9.70
2019-02-27T12:46:25.763Z,10.13
2019-02-27T12:48:28.879Z,10.17
2019-02-27T12:50:32.524Z,10.60
2019-02-27T12:52:35.414Z,10.23
2019-02-27T12:54:38.431Z,10.97
2019-02-27T12:56:44.527Z,10.10
2019-02-27T12:58:46.239Z,10.43
2019-02-27T13:00:49.919Z,10.00
2019-02-27T13:02:52.812Z,11.23
2019-02-27T13:04:57.930Z,10.30
2019-02-27T13:06:59.690Z,9.70
2019-02-27T13:09:03.362Z,10.77
2019-02-27T13:11:07.980Z,10.03
2019-02-27T13:13:10.784Z,10.73
2019-02-27T13:15:15.217Z,10.50
2019-02-27T13:17:21.451Z,10.93
2019-02-27T13:19:23.757Z,10.57
2019-02-27T13:21:27.427Z,10.03
2019-02-27T13:23:30.750Z,11.53
2019-02-27T13:25:34.404Z,11.00
2019-02-27T13:27:37.413Z,10.40
2019-02-27T13:29:41.103Z,10.47
2019-02-27T13:31:45.008Z,10.77
2019-02-27T13:33:47.888Z,11.37
2019-02-27T13:35:51.729Z,10.20
2019-02-27T13:37:54.985Z,10.73
2019-02-27T13:40:00.434Z,11.73
2019-02-27T13:42:02.282Z,10.17
2019-02-27T13:44:07.951Z,11.37
2019-02-27T13:46:10.399Z,10.47
2019-02-27T13:48:14.943Z,8.97
2019-02-27T13:50:22.209Z,10.83
2019-02-27T13:52:22.315Z,11.60
2019-02-27T13:54:25.295Z,9.10
2019-02-27T13:56:28.300Z,8.73
2019-02-27T13:58:35.550Z,9.43
2019-02-27T14:00:36.783Z,10.17
2019-02-27T14:02:39.704Z,9.97
2019-02-27T14:04:42.604Z,10.10
2019-02-27T14:06:47.433Z,10.30
2019-02-27T14:08:48.444Z,10.13
2019-02-27T14:10:53.384Z,10.73
2019-02-27T14:12:55.817Z,9.90
2019-02-27T14:14:58.708Z,10.10
2019-02-27T14:17:03.514Z,9.13
2019-02-27T14:19:06.713Z,9.30
2019-02-27T14:21:09.720Z,10.03
2019-02-27T14:23:14.591Z,10.23
2019-02-27T14:25:17.076Z,9.70
2019-02-27T14:27:20.368Z,8.80
2019-02-27T14:29:23.274Z,9.23
2019-02-27T14:31:27.220Z,9.07
2019-02-27T14:33:29.562Z,8.53
2019-02-27T14:35:36.318Z,9.27
2019-02-27T14:37:36.910Z,8.90
2019-02-27T14:39:39.942Z,8.03
2019-02-27T14:41:47.985Z,7.80
2019-02-27T14:43:46.518Z,6.97
2019-02-27T14:45:50.795Z,7.53
2019-02-27T14:47:52.384Z,7.93
2019-02-27T14:49:55.267Z,7.50
2019-02-27T14:51:58.172Z,8.13
2019-02-27T14:54:02.544Z,8.50
2019-02-27T14:56:09.229Z,7.73
2019-02-27T14:58:08.519Z,7.23
2019-02-27T15:00:19.448Z,6.93
2019-02-27T15:02:22.990Z,6.73
2019-02-27T15:04:25.360Z,6.90
2019-02-27T15:06:30.071Z,7.30
2019-02-27T15:08:35.199Z,6.27
2019-02-27T15:10:41.117Z,7.43
2019-02-27T15:12:41.348Z,6.60
2019-02-27T15:14:44.243Z,6.70
2019-02-27T15:16:49.296Z,6.90
2019-02-27T15:18:52.858Z,8.87
2019-02-27T15:20:53.113Z,9.90
2019-02-27T15:22:56.204Z,10.00
2019-02-27T15:24:59.123Z,9.13
2019-02-27T15:27:02.464Z,9.20
2019-02-27T15:29:05.679Z,9.87
2019-02-27T15:31:09.023Z,9.60
2019-02-27T15:33:11.939Z,8.83
2019-02-27T15:35:20.798Z,9.23
2019-02-27T15:37:18.826Z,9.60
2019-02-27T15:39:22.480Z,11.00
2019-02-27T15:41:25.513Z,9.70
2019-02-27T15:43:29.233Z,9.97
2019-02-27T15:45:32.124Z,9.47
2019-02-27T15:47:35.044Z,9.20
2019-02-27T15:49:37.935Z,8.80
2019-02-27T15:51:40.881Z,8.90
2019-02-27T15:53:49.747Z,9.10
2019-02-27T15:55:47.131Z,9.67
2019-02-27T15:57:53.676Z,9.60
2019-02-27T15:59:53.704Z,9.80
2019-02-27T16:02:02.407Z,9.37
2019-02-27T16:04:00.239Z,9.63
2019-02-27T16:06:05.553Z,10.27
2019-02-27T16:08:06.103Z,10.97
2019-02-27T16:10:09.959Z,9.70
2019-02-27T16:12:12.942Z,9.53
2019-02-27T16:14:16.587Z,9.70
2019-02-27T16:16:23.354Z,9.90
2019-02-27T16:18:22.478Z,8.73
2019-02-27T16:20:25.461Z,10.03
2019-02-27T16:22:30.296Z,9.50
2019-02-27T16:24:32.863Z,10.10
2019-02-27T16:26:35.987Z,9.77
2019-02-27T16:28:38.868Z,11.30
2019-02-27T16:30:41.805Z,9.57
2019-02-27T16:32:48.461Z,10.20
2019-02-27T16:34:47.706Z,9.57
2019-02-27T16:36:51.382Z,10.67
2019-02-27T16:38:55.047Z,9.87
2019-02-27T16:40:57.950Z,10.87
2019-02-27T16:43:00.933Z,10.95
2019-02-27T16:45:06.123Z,9.33
2019-02-27T16:47:09.516Z,11.33
2019-02-27T16:49:13.067Z,9.17
2019-02-27T16:51:15.944Z,8.83
2019-02-27T16:53:19.635Z,9.77
2019-02-27T16:55:23.435Z,9.40
2019-02-27T16:57:26.700Z,10.03
2019-02-27T16:59:29.596Z,9.20
2019-02-27T17:01:32.909Z,10.27
2019-02-27T17:03:35.799Z,9.57
2019-02-27T17:05:43.134Z,8.33
2019-02-27T17:07:43.390Z,9.50
2019-02-27T17:09:46.267Z,8.67
2019-02-27T17:11:49.780Z,8.90
2019-02-27T17:13:52.750Z,9.63
2019-02-27T17:15:55.623Z,10.13
2019-02-27T17:17:58.847Z,10.70
2019-02-27T17:20:02.710Z,8.73
2019-02-27T17:22:05.596Z,10.80
2019-02-27T17:24:09.999Z,10.30
2019-02-27T17:26:13.025Z,10.50
2019-02-27T17:28:16.322Z,9.83
2019-02-27T17:30:20.755Z,10.60
2019-02-27T17:32:23.899Z,9.17
2019-02-27T17:34:27.592Z,10.17
2019-02-27T17:36:31.972Z,9.70
2019-02-27T17:38:33.667Z,9.90
2019-02-27T17:40:38.063Z,10.20
2019-02-27T17:42:40.991Z,9.30
2019-02-27T17:44:44.895Z,9.93
2019-02-27T17:46:48.573Z,9.30
2019-02-27T17:48:51.430Z,10.30
2019-02-27T17:50:54.530Z,9.40
2019-02-27T17:52:57.551Z,10.23
2019-02-27T17:55:03.473Z,9.63
2019-02-27T17:57:04.537Z,10.37
2019-02-27T17:59:09.429Z,9.47
2019-02-27T18:01:13.840Z,10.23
2019-02-27T18:03:15.616Z,9.33
2019-02-27T18:05:18.591Z,8.55
2019-02-27T18:07:21.575Z,10.20
2019-02-27T18:09:26.466Z,9.90
2019-02-27T18:11:28.371Z,8.93
2019-02-27T18:13:35.338Z,9.73
2019-02-27T18:15:35.763Z,10.77
2019-02-27T18:17:39.463Z,10.20
2019-02-27T18:19:43.863Z,9.00
2019-02-27T18:21:47.689Z,7.90
2019-02-27T18:23:51.724Z,8.20
2019-02-27T18:25:55.526Z,7.20
2019-02-27T18:27:59.933Z,8.87
2019-02-27T18:30:02.451Z,8.33
2019-02-27T18:32:06.572Z,7.77
2019-02-27T18:34:09.255Z,7.83
2019-02-27T18:36:12.168Z,8.60
2019-02-27T18:38:15.191Z,7.60
2019-02-27T18:40:18.163Z,8.10
2019-02-27T18:42:21.773Z,8.90
2019-02-27T18:44:24.695Z,6.80
2019-02-27T18:46:28.079Z,6.70
2019-02-27T18:48:30.964Z,8.53
2019-02-27T18:50:34.940Z,7.97
2019-02-27T18:52:38.404Z,8.00
2019-02-27T18:54:41.146Z,7.93
2019-02-27T18:56:44.852Z,8.83
2019-02-27T18:58:48.557Z,8.03
2019-02-27T19:00:52.591Z,6.97
2019-02-27T19:02:56.232Z,7.87
2019-02-27T19:04:59.153Z,7.80
2019-02-27T19:07:02.801Z,7.00
2019-02-27T19:09:05.731Z,8.20
2019-02-27T19:11:09.415Z,8.27
2019-02-27T19:13:13.838Z,7.53
2019-02-27T19:15:17.506Z,8.40
2019-02-27T19:17:20.507Z,7.77
2019-02-27T19:19:23.643Z,7.80
2019-02-27T19:21:26.591Z,7.60
2019-02-27T19:23:29.572Z,8.40
2019-02-27T19:25:34.648Z,7.97
2019-02-27T19:27:37.633Z,7.70
2019-02-27T19:29:39.841Z,8.03
2019-02-27T19:31:43.504Z,7.63
2019-02-27T19:33:46.398Z,9.30
2019-02-27T19:35:49.395Z,9.07
2019-02-27T19:37:52.303Z,7.97
2019-02-27T19:39:56.368Z,9.13
2019-02-27T19:41:59.207Z,9.77
2019-02-27T19:44:02.849Z,10.70
2019-02-27T19:46:06.933Z,9.20
2019-02-27T19:48:09.280Z,8.80
2019-02-27T19:50:12.170Z,9.57
2019-02-27T19:52:15.055Z,9.70
2019-02-27T19:54:18.799Z,9.23
2019-02-27T19:56:21.792Z,10.17
2019-02-27T19:58:24.698Z,12.40
2019-02-27T20:00:33.844Z,11.77
2019-02-27T20:02:32.033Z,12.00
2019-02-27T20:04:35.189Z,11.60
2019-02-27T20:06:38.511Z,10.67
2019-02-27T20:08:45.431Z,11.87
2019-02-27T20:10:44.819Z,10.43
2019-02-27T20:12:52.911Z,10.30
2019-02-27T20:14:50.714Z,10.63
2019-02-27T20:16:55.311Z,10.30
2019-02-27T20:18:56.507Z,9.40
2019-02-27T20:20:59.398Z,9.10
2019-02-27T20:23:02.311Z,9.30
2019-02-27T20:25:20.100Z,8.77
2019-02-27T20:27:25.893Z,9.83
2019-02-27T20:29:25.955Z,8.23
2019-02-27T20:31:28.991Z,9.40
2019-02-27T20:33:34.236Z,9.10
2019-02-27T20:35:34.957Z,8.80
2019-02-27T20:37:40.567Z,8.63
2019-02-27T20:39:41.509Z,9.23
2019-02-27T20:41:44.411Z,8.77
2019-02-27T20:43:48.336Z,8.70
2019-02-27T20:45:50.985Z,8.00
2019-02-27T20:47:57.651Z,8.50
2019-02-27T20:49:56.944Z,8.40
2019-02-27T20:51:59.822Z,9.13
2019-02-27T20:54:02.797Z,7.43
2019-02-27T20:56:06.425Z,7.90
2019-02-27T20:58:09.639Z,8.20
2019-02-27T21:00:13.987Z,10.20
2019-02-27T21:02:18.733Z,7.27
2019-02-27T21:04:19.784Z,12.52
2019-02-27T21:06:22.779Z,15.73
2019-02-27T21:08:26.450Z,15.35
2019-02-27T21:10:30.051Z,13.40
2019-02-27T21:12:32.947Z,12.83
2019-02-27T21:14:36.615Z,9.60
2019-02-27T21:16:40.171Z,10.10
2019-02-27T21:18:43.199Z,10.33
2019-02-27T21:20:46.580Z,9.77
2019-02-27T21:22:49.811Z,8.52
2019-02-27T21:24:52.693Z,8.87
2019-02-27T21:26:57.270Z,8.97
2019-02-27T21:28:59.014Z,8.32
2019-02-27T21:31:01.416Z,8.70
2019-02-27T21:33:04.558Z,8.15
2019-02-27T21:35:08.328Z,11.23
2019-02-27T21:37:11.225Z,7.87
2019-02-27T21:39:14.128Z,8.13
2019-02-27T21:41:17.029Z,9.10
2019-02-27T21:43:25.175Z,7.87
2019-02-27T21:45:23.637Z,10.20
2019-02-27T21:47:26.521Z,9.47
2019-02-27T21:49:32.096Z,8.37
2019-02-27T21:51:32.331Z,9.37
2019-02-27T21:53:35.310Z,8.57
2019-02-27T21:55:38.359Z,9.27
2019-02-27T21:57:42.030Z,9.80
2019-02-27T21:59:44.907Z,8.73
2019-02-27T22:01:49.102Z,8.73
2019-02-27T22:03:52.679Z,8.60
2019-02-27T22:05:56.174Z,7.85
2019-02-27T22:08:00.572Z,7.00
2019-02-27T22:10:04.824Z,7.70
2019-02-27T22:12:07.715Z,7.53
2019-02-27T22:14:10.734Z,8.27
2019-02-27T22:16:13.619Z,6.85
2019-02-27T22:18:17.280Z,6.82
2019-02-27T22:20:20.303Z,8.17
2019-02-27T22:22:23.183Z,7.30
2019-02-27T22:24:26.082Z,7.43
2019-02-27T22:26:29.042Z,7.27
2019-02-27T22:28:31.927Z,7.60
2019-02-27T22:30:35.020Z,7.63
2019-02-27T22:32:37.898Z,7.00
2019-02-27T22:34:40.776Z,8.07
2019-02-27T22:36:44.859Z,8.10
2019-02-27T22:38:47.410Z,8.10
2019-02-27T22:40:50.528Z,8.05
2019-02-27T22:42:53.435Z,9.20
2019-02-27T22:44:56.528Z,8.27
2019-02-27T22:46:59.399Z,7.90
2019-02-27T22:49:03.224Z,7.80
2019-02-27T22:51:06.892Z,7.73
2019-02-27T22:53:10.565Z,7.00
2019-02-27T22:55:13.880Z,7.75
2019-02-27T22:57:17.543Z,8.40
2019-02-27T22:59:20.423Z,8.30
2019-02-27T23:01:23.353Z,8.43
2019-02-27T23:03:28.469Z,7.97
2019-02-27T23:05:31.355Z,12.90
2019-02-27T23:07:35.159Z,10.48
2019-02-27T23:09:38.813Z,8.82
2019-02-27T23:11:41.780Z,8.45
2019-02-27T23:13:47.392Z,8.35
2019-02-27T23:15:48.400Z,9.30
2019-02-27T23:17:51.298Z,9.15
2019-02-27T23:19:54.205Z,9.87
2019-02-27T23:21:58.572Z,9.43
2019-02-27T23:24:01.549Z,10.00
2019-02-27T23:26:04.443Z,8.80
2019-02-27T23:28:07.330Z,10.85
2019-02-27T23:30:14.848Z,10.35
2019-02-27T23:32:13.956Z,10.23
2019-02-27T23:34:18.399Z,10.30
2019-02-27T23:36:21.882Z,9.35
2019-02-27T23:38:24.210Z,9.65
2019-02-27T23:40:27.884Z,9.90
2019-02-27T23:42:30.789Z,10.02
2019-02-27T23:44:38.259Z,10.13
2019-02-27T23:46:38.155Z,9.40
2019-02-27T23:48:41.899Z,8.85
2019-02-27T23:50:45.633Z,9.32
2019-02-27T23:52:48.544Z,9.83
2019-02-27T23:54:51.424Z,9.40
2019-02-27T23:56:54.431Z,10.20
2019-02-27T23:59:02.388Z,10.10
